Aviation Digital Data Service (ADDS)

Output produced by METARs form (0535 UTC 28 November 2014)
found at http://aviationweather.gov/adds/metars/
 
KSYR 280530Z 2806/2906 27005KT P6SM SCT025 BKN035 
     FM281200 27010KT 1SM -SN OVC012 
     FM281700 26010KT P6SM -SHSN SCT025 BKN035 
     FM290000 23005KT P6SM SCT040 OVC100